Погода Дёртьёлна неделю

Средиземноморский регион, Турция

01 - 07 сентября
  • 01сентября
    Сегодня
    +27°
    +34°
    Ясно и безоблачно
    ВремяПогодаТемператураВлажностьДавлениеВетер, м/сВероятность осадков
    00:00Ясно и безоблачно+29°C67 %755 мм1.0 м/с2 %
    03:00Ясно и безоблачно+27°C72 %754 мм1.0 м/с2 %
    06:00Ясно и безоблачно+27°C71 %754 мм0.8 м/с2 %
    09:00Ясно и безоблачно+31°C61 %755 мм1.0 м/с2 %
    12:00Ясно и безоблачно+32°C66 %755 мм1.8 м/с5 %
    15:00Ясно и безоблачно+34°C64 %754 мм1.8 м/с16 %
    18:00Ясно и безоблачно+32°C81 %754 мм1.6 м/с8 %
    21:00Небольшая облачность+30°C84 %755 мм0.6 м/с2 %
  • 02сентября
    Среда
    +27°
    +35°
    Ясно и безоблачно
    ВремяПогодаТемператураВлажностьДавлениеВетер, м/сВероятность осадков
    00:00Ясно и безоблачно+29°C73 %756 мм0.9 м/с2 %
    03:00Ясно и безоблачно+28°C71 %755 мм1.0 м/с2 %
    06:00Ясно и безоблачно+27°C68 %755 мм1.0 м/с2 %
    09:00Ясно и безоблачно+31°C64 %755 мм1.0 м/с2 %
    12:00Ясно и безоблачно+33°C63 %755 мм1.6 м/с2 %
    15:00Ясно и безоблачно+34°C53 %754 мм1.2 м/с1 %
    18:00Ясно и безоблачно+32°C81 %754 мм1.1 м/с2 %
    21:00Ясно и безоблачно+30°C78 %755 мм0.5 м/с2 %
  • 03сентября
    Четверг
    +27°
    +34°
    Ясно и безоблачно
    ВремяПогодаТемператураВлажностьДавлениеВетер, м/сВероятность осадков
    00:00Ясно и безоблачно+29°C61 %754 мм1.0 м/с2 %
    03:00Ясно и безоблачно+28°C58 %754 мм1.0 м/с2 %
    06:00Ясно и безоблачно+28°C52 %753 мм0.8 м/с2 %
    09:00Ясно и безоблачно+31°C50 %754 мм0.8 м/с2 %
    12:00Ясно и безоблачно+32°C69 %754 мм1.9 м/с3 %
    15:00Ясно и безоблачно+33°C64 %753 мм1.7 м/с6 %
    18:00Ясно и безоблачно+32°C71 %752 мм1.5 м/с2 %
    21:00Ясно и безоблачно+30°C73 %753 мм0.5 м/с2 %
  • 04сентября
    Пятница
    +25°
    +33°
    Ясно и безоблачно
    ВремяПогодаТемператураВлажностьДавлениеВетер, м/сВероятность осадков
    00:00Ясно и безоблачно+29°C64 %753 мм0.4 м/с2 %
    03:00Ясно и безоблачно+28°C52 %752 мм1.1 м/с2 %
    06:00Ясно и безоблачно+28°C54 %752 мм0.6 м/с2 %
    09:00Ясно и безоблачно+30°C65 %753 мм0.3 м/с3 %
    12:00Ясно и безоблачно+31°C72 %753 мм1.5 м/с8 %
    15:00Ясно и безоблачно+33°C69 %753 мм1.9 м/с8 %
    18:00Ясно и безоблачно+32°C78 %753 мм1.2 м/с6 %
    21:00Ясно и безоблачно+30°C83 %754 мм0.7 м/с5 %
  • 05сентября
    Суббота
    +26°
    +34°
    Ясно и безоблачно
    ВремяПогодаТемператураВлажностьДавлениеВетер, м/сВероятность осадков
    00:00Практически безоблачно+29°C81 %754 мм0.2 м/с4 %
    03:00Практически безоблачно+27°C84 %754 мм0.9 м/с15 %
    06:00Облачно с прояснениями+26°C85 %754 мм0.8 м/с4 %
    09:00Практически безоблачно+30°C76 %755 мм1.1 м/с6 %
    12:00Ясно и безоблачно+31°C70 %755 мм1.7 м/с11 %
    15:00Ясно и безоблачно+33°C55 %754 мм1.1 м/с14 %
    18:00Ясно и безоблачно+32°C65 %754 мм1.1 м/с13 %
    21:00Ясно и безоблачно+30°C64 %756 мм0.5 м/с7 %
  • 06сентября
    Воскресенье
    +24°
    +35°
    Ясно и безоблачно
    ВремяПогодаТемператураВлажностьДавлениеВетер, м/сВероятность осадков
    03:00Ясно и безоблачно+26°C84 %755 мм1.1 м/с14 %
    09:00Ясно и безоблачно+29°C79 %756 мм1.0 м/с6 %
    15:00Ясно и безоблачно+33°C36 %755 мм0.7 м/с26 %
    21:00Ясно и безоблачно+27°C85 %756 мм1.2 м/с8 %
  • 07сентября
    Понедельник
    +24°
    +34°
    Ясно и безоблачно
    ВремяПогодаТемператураВлажностьДавлениеВетер, м/сВероятность осадков
    03:00Ясно и безоблачно+25°C63 %756 мм1.3 м/с2 %
    09:00Ясно и безоблачно+29°C44 %756 мм1.7 м/с2 %
    15:00Ясно и безоблачно+34°C30 %755 мм2.7 м/с3 %
    21:00Ясно и безоблачно+28°C54 %755 мм1.9 м/с2 %
Мы используем cookies
Соглашаюсь